createdAt,value
2022-07-30T00:01:18.494Z,98786.09
2022-07-30T00:04:04.321Z,98785.31
2022-07-30T00:06:49.563Z,98786.09
2022-07-30T00:09:36.234Z,98771.81
2022-07-30T00:12:21.686Z,98777.41
2022-07-30T00:15:07.710Z,98777.50
2022-07-30T00:17:53.459Z,98777.50
2022-07-30T00:20:40.319Z,98783.53
2022-07-30T00:23:29.039Z,98776.81
2022-07-30T00:26:14.341Z,98777.97
2022-07-30T00:28:59.591Z,98770.03
2022-07-30T00:31:44.853Z,98770.81
2022-07-30T00:34:30.070Z,98778.72
2022-07-30T00:37:15.361Z,98783.53
2022-07-30T00:40:00.764Z,98781.94
2022-07-30T00:42:47.349Z,98783.97
2022-07-30T00:45:34.508Z,98770.47
2022-07-30T00:48:20.053Z,98779.59
2022-07-30T00:51:05.394Z,98779.59
2022-07-30T00:53:50.804Z,98778.84
2022-07-30T00:56:36.139Z,98779.28
2022-07-30T00:59:21.638Z,98776.94
2022-07-30T01:02:07.505Z,98776.94
2022-07-30T01:04:53.200Z,98774.94
2022-07-30T01:07:38.887Z,98767.47
2022-07-30T01:10:24.585Z,98769.50
2022-07-30T01:13:10.149Z,98761.13
2022-07-30T01:15:58.104Z,98748.44
2022-07-30T01:19:04.926Z,98752.44
2022-07-30T01:22:03.668Z,98757.22
2022-07-30T01:25:04.206Z,98748.53
2022-07-30T01:27:56.728Z,98755.66
2022-07-30T01:30:44.267Z,98754.09
2022-07-30T01:33:31.488Z,98761.56
2022-07-30T01:36:22.047Z,98759.22
2022-07-30T01:39:08.673Z,98752.13
2022-07-30T01:41:55.885Z,98750.88
2022-07-30T01:44:43.484Z,98754.91
2022-07-30T01:47:31.058Z,98754.91
2022-07-30T01:50:17.588Z,98750.53
2022-07-30T01:53:05.662Z,98746.97
2022-07-30T01:55:52.922Z,98749.31
2022-07-30T01:58:39.926Z,98749.31
2022-07-30T02:01:43.818Z,98746.53
2022-07-30T02:04:29.984Z,98744.97
2022-07-30T02:07:37.753Z,98745.44
2022-07-30T02:10:32.488Z,98743.41
2022-07-30T02:13:26.935Z,98738.28
2022-07-30T02:16:19.958Z,98743.09
2022-07-30T02:19:19.538Z,98748.66
2022-07-30T02:22:09.437Z,98746.66
2022-07-30T02:24:59.171Z,98751.44
2022-07-30T02:27:48.836Z,98746.66
2022-07-30T02:30:37.877Z,98754.22
2022-07-30T02:33:27.533Z,98756.22
2022-07-30T02:36:15.345Z,98760.56
2022-07-30T02:39:04.249Z,98760.22
2022-07-30T02:41:50.349Z,98767.81
2022-07-30T02:44:38.648Z,98762.25
2022-07-30T02:47:26.534Z,98762.25
2022-07-30T02:50:20.935Z,98757.44
2022-07-30T02:53:11.014Z,98759.13
2022-07-30T02:56:00.567Z,98755.91
2022-07-30T02:58:47.069Z,98759.13
2022-07-30T03:01:34.219Z,98746.44
2022-07-30T03:04:21.296Z,98756.34
2022-07-30T03:07:08.953Z,98752.00
2022-07-30T03:09:56.226Z,98752.78
2022-07-30T03:12:46.397Z,98751.19
2022-07-30T03:15:34.857Z,98753.56
2022-07-30T03:18:32.908Z,98763.13
2022-07-30T03:21:23.738Z,98774.28
2022-07-30T03:24:11.982Z,98772.69
2022-07-30T03:27:00.976Z,98779.50
2022-07-30T03:29:48.707Z,98787.84
2022-07-30T03:32:36.637Z,98786.97
2022-07-30T03:35:24.958Z,98784.59
2022-07-30T03:38:14.471Z,98788.63
2022-07-30T03:41:00.868Z,98781.81
2022-07-30T03:43:47.451Z,98769.47
2022-07-30T03:46:35.166Z,98756.44
2022-07-30T03:49:23.073Z,98755.22
2022-07-30T03:52:09.543Z,98748.53
2022-07-30T03:54:55.546Z,98748.06
2022-07-30T03:58:02.094Z,98742.50
2022-07-30T04:00:50.549Z,98737.41
2022-07-30T04:03:35.835Z,98727.47
2022-07-30T04:06:23.863Z,98731.84
2022-07-30T04:09:11.446Z,98738.63
2022-07-30T04:11:58.400Z,98744.66
2022-07-30T04:14:45.636Z,98756.56
2022-07-30T04:17:45.215Z,98761.69
2022-07-30T04:20:36.647Z,98768.03
2022-07-30T04:23:22.857Z,98765.69
2022-07-30T04:26:08.912Z,98774.81
2022-07-30T04:28:55.037Z,98772.03
2022-07-30T04:31:41.406Z,98777.59
2022-07-30T04:34:48.652Z,98781.59
2022-07-30T04:37:37.551Z,98782.38
2022-07-30T04:40:23.980Z,98777.59
2022-07-30T04:43:09.875Z,98768.91
2022-07-30T04:45:56.742Z,98768.13
2022-07-30T04:48:42.779Z,98768.13
2022-07-30T04:51:37.230Z,98763.34
2022-07-30T04:54:24.877Z,98762.56
2022-07-30T04:57:15.080Z,98766.13
2022-07-30T05:00:01.350Z,98759.34
2022-07-30T05:02:49.691Z,98761.00
2022-07-30T05:05:36.620Z,98758.22
2022-07-30T05:08:22.499Z,98757.00
2022-07-30T05:11:12.340Z,98754.66
2022-07-30T05:13:58.008Z,98754.66
2022-07-30T05:16:43.774Z,98752.31
2022-07-30T05:19:31.161Z,98752.31
2022-07-30T05:22:16.417Z,98748.31
2022-07-30T05:25:03.878Z,98740.41
2022-07-30T05:28:01.685Z,98745.19
2022-07-30T05:30:46.833Z,98744.75
2022-07-30T05:33:38.849Z,98741.88
2022-07-30T05:36:29.174Z,98747.44
2022-07-30T05:39:14.746Z,98745.75
2022-07-30T05:42:19.909Z,98746.53
2022-07-30T05:45:08.570Z,98743.75
2022-07-30T05:47:54.715Z,98739.72
2022-07-30T05:50:39.970Z,98750.44
2022-07-30T05:53:25.178Z,98744.84
2022-07-30T05:56:28.900Z,98753.22
2022-07-30T05:59:33.050Z,98749.53
2022-07-30T06:02:26.984Z,98754.31
2022-07-30T06:05:35.976Z,98743.19
2022-07-30T06:08:21.119Z,98755.91
2022-07-30T06:11:08.863Z,98765.78
2022-07-30T06:13:56.393Z,98769.34
2022-07-30T06:16:42.224Z,98768.47
2022-07-30T06:19:27.451Z,98762.91
2022-07-30T06:22:13.603Z,98766.03
2022-07-30T06:25:05.496Z,98769.16
2022-07-30T06:27:51.787Z,98765.13
2022-07-30T06:30:37.035Z,98777.84
2022-07-30T06:33:22.979Z,98769.50
2022-07-30T06:36:08.646Z,98783.41
2022-07-30T06:39:10.444Z,98791.31
2022-07-30T06:42:14.703Z,98784.97
2022-07-30T06:45:19.963Z,98786.06
2022-07-30T06:48:24.110Z,98796.78
2022-07-30T06:51:10.898Z,98795.88
2022-07-30T06:53:58.392Z,98807.03
2022-07-30T06:57:15.894Z,98812.59
2022-07-30T07:00:07.014Z,98816.94
2022-07-30T07:02:55.060Z,98814.16
2022-07-30T07:05:52.951Z,98815.28
2022-07-30T07:08:38.787Z,98815.28
2022-07-30T07:11:25.859Z,98818.75
2022-07-30T07:14:14.077Z,98825.09
2022-07-30T07:16:59.484Z,98824.66
2022-07-30T07:20:05.465Z,98814.28
2022-07-30T07:23:08.918Z,98822.28
2022-07-30T07:25:56.320Z,98823.84
2022-07-30T07:28:43.631Z,98813.16
2022-07-30T07:32:06.774Z,98819.50
2022-07-30T07:34:34.647Z,98821.84
2022-07-30T07:37:20.329Z,98824.19
2022-07-30T07:40:06.890Z,98826.97
2022-07-30T07:42:56.994Z,98821.28
2022-07-30T07:45:43.000Z,98830.00
2022-07-30T07:48:29.216Z,98828.75
2022-07-30T07:51:46.701Z,98823.94
2022-07-30T07:54:32.766Z,98841.84
2022-07-30T07:57:18.203Z,98834.69
2022-07-30T08:00:06.879Z,98834.25
2022-07-30T08:02:53.508Z,98831.81
2022-07-30T08:05:58.171Z,98829.00
2022-07-30T08:09:06.415Z,98834.59
2022-07-30T08:12:13.362Z,98831.81
2022-07-30T08:15:21.913Z,98836.56
2022-07-30T08:18:26.922Z,98837.03
2022-07-30T08:21:24.757Z,98841.03
2022-07-30T08:24:10.806Z,98842.25
2022-07-30T08:26:57.081Z,98852.63
2022-07-30T08:29:44.534Z,98849.41
2022-07-30T08:32:30.225Z,98846.25
2022-07-30T08:35:18.194Z,98853.06
2022-07-30T08:38:04.357Z,98853.38
2022-07-30T08:40:51.021Z,98854.53
2022-07-30T08:43:37.621Z,98860.53
2022-07-30T08:46:27.910Z,98861.75
2022-07-30T08:49:21.173Z,98862.97
2022-07-30T08:52:08.755Z,98857.03
2022-07-30T08:55:01.731Z,98856.75
2022-07-30T08:57:47.677Z,98865.41
2022-07-30T09:00:33.619Z,98868.19
2022-07-30T09:03:19.634Z,98866.97
2022-07-30T09:06:05.870Z,98870.19
2022-07-30T09:08:52.703Z,98859.41
2022-07-30T09:11:37.953Z,98867.75
2022-07-30T09:14:23.657Z,98867.31
2022-07-30T09:17:17.184Z,98877.69
2022-07-30T09:20:04.768Z,98871.69
2022-07-30T09:22:58.149Z,98870.91
2022-07-30T09:26:06.692Z,98882.81
2022-07-30T09:29:20.912Z,98880.38
2022-07-30T09:32:59.947Z,98883.94
2022-07-30T09:36:20.947Z,98885.94
2022-07-30T09:39:42.609Z,98890.31
2022-07-30T09:42:46.044Z,98891.09
2022-07-30T09:45:35.189Z,98883.94
2022-07-30T09:48:26.871Z,98879.94
2022-07-30T09:51:15.673Z,98892.19
2022-07-30T09:54:01.958Z,98899.34
2022-07-30T09:56:53.682Z,98882.16
2022-07-30T09:59:39.964Z,98892.88
2022-07-30T10:02:34.075Z,98885.72
2022-07-30T10:05:29.446Z,98888.84
2022-07-30T10:08:16.734Z,98882.06
2022-07-30T10:11:08.535Z,98883.94
2022-07-30T10:13:57.355Z,98887.84
2022-07-30T10:16:43.963Z,98881.50
2022-07-30T10:19:40.274Z,98898.22
2022-07-30T10:22:48.139Z,98886.97
2022-07-30T10:26:11.612Z,98902.13
2022-07-30T10:28:57.506Z,98896.53
2022-07-30T10:31:47.929Z,98899.00
2022-07-30T10:34:36.891Z,98901.34
2022-07-30T10:37:30.135Z,98903.03
2022-07-30T10:40:18.383Z,98896.69
2022-07-30T10:43:36.375Z,98899.47
2022-07-30T10:46:29.382Z,98905.81
2022-07-30T10:49:18.611Z,98908.16
2022-07-30T10:52:04.956Z,98908.47
2022-07-30T10:54:53.702Z,98908.16
2022-07-30T10:58:11.091Z,98909.28
2022-07-30T11:00:57.004Z,98910.03
2022-07-30T11:03:45.032Z,98901.59
2022-07-30T11:06:30.920Z,98904.38
2022-07-30T11:09:37.155Z,98895.22
2022-07-30T11:12:58.957Z,98895.88
2022-07-30T11:15:57.356Z,98898.22
2022-07-30T11:22:38.978Z,98897.75
2022-07-30T11:25:50.258Z,98896.44
2022-07-30T11:28:38.656Z,98890.41
2022-07-30T11:32:07.496Z,98895.97
2022-07-30T11:34:42.709Z,98891.66
2022-07-30T11:37:32.489Z,98898.44
2022-07-30T11:40:26.086Z,98896.44
2022-07-30T11:43:34.988Z,98894.88
2022-07-30T11:46:28.628Z,98895.66
2022-07-30T11:49:15.814Z,98898.91
2022-07-30T11:52:02.351Z,98904.00
2022-07-30T11:54:57.169Z,98900.13
2022-07-30T11:57:44.506Z,98899.25
2022-07-30T12:00:40.686Z,98893.66
2022-07-30T12:03:29.861Z,98900.00
2022-07-30T12:06:24.764Z,98908.03
2022-07-30T12:09:12.485Z,98903.69
2022-07-30T12:12:01.005Z,98913.63
2022-07-30T12:14:47.965Z,98908.03
2022-07-30T12:17:47.945Z,98903.25
2022-07-30T12:20:36.314Z,98906.47
2022-07-30T12:23:22.287Z,98909.59
2022-07-30T12:26:08.887Z,98904.59
2022-07-30T12:28:56.362Z,98913.28
2022-07-30T12:31:43.535Z,98911.25
2022-07-30T12:34:29.255Z,98911.25
2022-07-30T12:37:15.622Z,98908.03
2022-07-30T12:40:15.038Z,98909.72
2022-07-30T12:43:02.409Z,98902.13
2022-07-30T12:45:52.077Z,98905.69
2022-07-30T12:49:21.235Z,98904.91
2022-07-30T12:52:13.221Z,98903.34
2022-07-30T12:55:13.385Z,98901.22
2022-07-30T12:58:07.638Z,98895.31
2022-07-30T13:00:55.581Z,98890.97
2022-07-30T13:03:43.269Z,98891.88
2022-07-30T13:06:29.409Z,98895.53
2022-07-30T13:09:21.986Z,98897.13
2022-07-30T13:13:02.990Z,98895.53
2022-07-30T13:15:59.480Z,98898.34
2022-07-30T13:18:45.695Z,98891.22
2022-07-30T13:21:31.481Z,98888.09
2022-07-30T13:24:20.411Z,98892.88
2022-07-30T13:27:06.065Z,98890.88
2022-07-30T13:29:54.377Z,98887.75
2022-07-30T13:32:40.217Z,98891.97
2022-07-30T13:35:25.977Z,98895.53
2022-07-30T13:38:13.634Z,98900.25
2022-07-30T13:41:02.728Z,98897.47
2022-07-30T13:43:49.946Z,98893.09
2022-07-30T13:46:41.094Z,98898.66
2022-07-30T13:49:27.197Z,98893.22
2022-07-30T13:52:15.387Z,98891.97
2022-07-30T13:55:03.174Z,98891.97
2022-07-30T13:57:49.069Z,98891.22
2022-07-30T14:00:38.956Z,98898.34
2022-07-30T14:03:26.220Z,98903.91
2022-07-30T14:06:13.034Z,98906.03
2022-07-30T14:08:58.486Z,98913.94
2022-07-30T14:11:44.293Z,98913.94
2022-07-30T14:14:30.836Z,98913.94
2022-07-30T14:17:16.479Z,98907.59
2022-07-30T14:20:02.425Z,98920.75
2022-07-30T14:22:47.935Z,98913.16
2022-07-30T14:25:33.904Z,98908.81
2022-07-30T14:28:19.481Z,98894.88
2022-07-30T14:31:05.484Z,98898.00
2022-07-30T14:33:51.320Z,98898.81
2022-07-30T14:36:37.452Z,98898.66
2022-07-30T14:39:22.752Z,98894.34
2022-07-30T14:42:08.286Z,98899.09
2022-07-30T14:44:56.894Z,98892.75
2022-07-30T14:47:43.137Z,98899.56
2022-07-30T14:50:28.989Z,98905.59
2022-07-30T14:53:21.828Z,98903.13
2022-07-30T14:56:08.574Z,98883.72
2022-07-30T14:58:54.785Z,98898.13
2022-07-30T15:01:43.154Z,98888.53
2022-07-30T15:04:29.248Z,98894.09
2022-07-30T15:07:14.718Z,98891.66
2022-07-30T15:10:01.387Z,98894.44
2022-07-30T15:12:46.733Z,98896.78
2022-07-30T15:15:38.203Z,98897.13
2022-07-30T15:18:24.265Z,98894.78
2022-07-30T15:21:11.614Z,98900.34
2022-07-30T15:23:56.770Z,98892.75
2022-07-30T15:26:42.509Z,98888.88
2022-07-30T15:29:30.143Z,98895.22
2022-07-30T15:32:16.481Z,98895.22
2022-07-30T15:35:02.152Z,98894.44
2022-07-30T15:37:48.137Z,98891.53
2022-07-30T15:40:33.545Z,98900.34
2022-07-30T15:43:18.845Z,98897.56
2022-07-30T15:46:04.144Z,98895.88
2022-07-30T15:48:49.495Z,98897.13
2022-07-30T15:51:35.446Z,98894.34
2022-07-30T15:54:24.807Z,98899.44
2022-07-30T15:57:10.538Z,98897.75
2022-07-30T15:59:55.989Z,98902.13
2022-07-30T16:02:42.111Z,98903.25
2022-07-30T16:05:28.135Z,98903.25
2022-07-30T16:08:34.114Z,98897.09
2022-07-30T16:11:19.680Z,98903.81
2022-07-30T16:14:05.812Z,98906.91
2022-07-30T16:16:52.704Z,98912.81
2022-07-30T16:19:38.172Z,98913.16
2022-07-30T16:22:23.914Z,98921.19
2022-07-30T16:25:09.967Z,98914.72
2022-07-30T16:27:55.836Z,98923.09
2022-07-30T16:30:50.772Z,98928.66
2022-07-30T16:33:38.264Z,98934.59
2022-07-30T16:36:24.032Z,98934.13
2022-07-30T16:39:10.980Z,98940.81
2022-07-30T16:41:56.852Z,98937.72
2022-07-30T16:44:42.159Z,98938.47
2022-07-30T16:47:27.522Z,98946.84
2022-07-30T16:50:20.382Z,98944.84
2022-07-30T16:53:08.535Z,98939.25
2022-07-30T16:55:58.432Z,98947.63
2022-07-30T16:58:44.080Z,98941.59
2022-07-30T17:01:29.627Z,98952.97
2022-07-30T17:04:15.731Z,98970.59
2022-07-30T17:07:01.167Z,98971.03
2022-07-30T17:09:51.994Z,98972.28
2022-07-30T17:12:39.225Z,98974.25
2022-07-30T17:15:31.920Z,98977.06
2022-07-30T17:18:18.482Z,98976.41
2022-07-30T17:21:04.584Z,98983.88
2022-07-30T17:23:50.495Z,98977.06
2022-07-30T17:26:36.067Z,98981.41
2022-07-30T17:29:21.658Z,98984.53
2022-07-30T17:32:08.325Z,98990.13
2022-07-30T17:34:54.930Z,98980.66
2022-07-30T17:37:40.495Z,98976.28
2022-07-30T17:40:31.514Z,98985.13
2022-07-30T17:43:17.741Z,98984.78
2022-07-30T17:46:03.752Z,98988.44
2022-07-30T17:48:50.184Z,98997.56
2022-07-30T17:51:36.496Z,98997.47
2022-07-30T17:54:22.600Z,98995.59
2022-07-30T17:57:08.536Z,98995.59
2022-07-30T17:59:54.102Z,99008.72
2022-07-30T18:02:39.671Z,99001.50
2022-07-30T18:05:25.043Z,98997.91
2022-07-30T18:08:10.472Z,99000.69
2022-07-30T18:10:57.072Z,99010.31
2022-07-30T18:13:43.131Z,99012.31
2022-07-30T18:16:28.471Z,99016.31
2022-07-30T18:19:26.798Z,99013.66
2022-07-30T18:22:14.962Z,99017.66
2022-07-30T18:25:00.864Z,99024.13
2022-07-30T18:27:47.874Z,99022.22
2022-07-30T18:30:34.664Z,99033.38
2022-07-30T18:33:20.756Z,99032.25
2022-07-30T18:36:06.790Z,99032.59
2022-07-30T18:38:52.251Z,99028.69
2022-07-30T18:41:37.315Z,99031.47
2022-07-30T18:44:23.089Z,99033.16
2022-07-30T18:47:09.727Z,99034.34
2022-07-30T18:49:56.143Z,99030.78
2022-07-30T18:52:42.718Z,99040.38
2022-07-30T18:55:28.800Z,99039.63
2022-07-30T18:58:14.428Z,99040.38
2022-07-30T19:01:00.198Z,99040.81
2022-07-30T19:03:46.210Z,99047.97
2022-07-30T19:06:32.169Z,99060.69
2022-07-30T19:09:18.301Z,99061.03
2022-07-30T19:12:05.290Z,99057.88
2022-07-30T19:14:51.021Z,99057.88
2022-07-30T19:17:45.209Z,99065.00
2022-07-30T19:20:36.427Z,99063.47
2022-07-30T19:23:21.887Z,99066.25
2022-07-30T19:26:07.299Z,99056.34
2022-07-30T19:28:52.763Z,99053.88
2022-07-30T19:31:41.915Z,99057.47
2022-07-30T19:34:27.221Z,99064.91
2022-07-30T19:37:12.895Z,99061.03
2022-07-30T19:40:05.603Z,99062.91
2022-07-30T19:42:55.942Z,99054.38
2022-07-30T19:45:47.634Z,99070.53
2022-07-30T19:48:36.054Z,99064.63
2022-07-30T19:51:25.300Z,99069.84
2022-07-30T19:54:27.177Z,99073.06
2022-07-30T19:57:13.030Z,99064.84
2022-07-30T20:00:04.108Z,99071.28
2022-07-30T20:02:57.780Z,99065.69
2022-07-30T20:05:58.433Z,99066.59
2022-07-30T20:08:45.308Z,99061.44
2022-07-30T20:11:34.856Z,99062.91
2022-07-30T20:14:22.959Z,99054.66
2022-07-30T20:17:08.403Z,99061.03
2022-07-30T20:19:55.482Z,99058.22
2022-07-30T20:22:43.838Z,99051.97
2022-07-30T20:25:29.667Z,99059.13
2022-07-30T20:28:22.528Z,99061.56
2022-07-30T20:31:11.694Z,99061.22
2022-07-30T20:33:58.219Z,99059.56
2022-07-30T20:36:43.549Z,99060.00
2022-07-30T20:39:29.694Z,99057.22
2022-07-30T20:42:16.462Z,99051.63
2022-07-30T20:45:02.778Z,99046.84
2022-07-30T20:47:49.822Z,99038.94
2022-07-30T20:50:39.752Z,99045.28
2022-07-30T20:53:25.275Z,99050.84
2022-07-30T20:56:19.451Z,99052.09
2022-07-30T20:59:06.411Z,99056.88
2022-07-30T21:01:51.793Z,99054.63
2022-07-30T21:04:41.149Z,99047.16
2022-07-30T21:07:36.578Z,99058.75
2022-07-30T21:10:23.680Z,99060.75
2022-07-30T21:13:09.185Z,99046.91
2022-07-30T21:16:02.788Z,99058.06
2022-07-30T21:18:50.499Z,99056.03
2022-07-30T21:21:41.504Z,99054.38
2022-07-30T21:24:27.242Z,99057.63
2022-07-30T21:27:13.277Z,99053.59
2022-07-30T21:29:58.802Z,99054.50
2022-07-30T21:32:45.626Z,99050.13
2022-07-30T21:38:37.134Z,99050.13
2022-07-30T21:41:40.178Z,99054.94
2022-07-30T21:44:25.910Z,99058.16
2022-07-30T21:47:11.481Z,99060.97
2022-07-30T21:49:56.742Z,99057.13
2022-07-30T21:52:42.562Z,99061.81
2022-07-30T21:55:28.117Z,99063.50
2022-07-30T21:58:25.782Z,99068.63
2022-07-30T22:01:17.903Z,99075.16
2022-07-30T22:04:08.445Z,99075.59
2022-07-30T22:06:54.834Z,99074.81
2022-07-30T22:09:41.817Z,99072.44
2022-07-30T22:12:29.129Z,99066.19
2022-07-30T22:15:16.608Z,99072.88
2022-07-30T22:18:02.124Z,99064.53
2022-07-30T22:20:48.508Z,99070.91
2022-07-30T22:23:35.669Z,99067.00
2022-07-30T22:26:21.367Z,99059.94
2022-07-30T22:29:06.544Z,99061.50
2022-07-30T22:31:51.794Z,99076.63
2022-07-30T22:34:37.683Z,99067.06
2022-07-30T22:37:23.195Z,99062.63
2022-07-30T22:40:09.488Z,99068.75
2022-07-30T22:42:55.700Z,99069.16
2022-07-30T22:45:47.599Z,99064.91
2022-07-30T22:48:34.746Z,99059.78
2022-07-30T22:51:20.434Z,99065.81
2022-07-30T22:54:12.747Z,99063.09
2022-07-30T22:57:04.209Z,99061.44
2022-07-30T22:59:59.861Z,99059.13
2022-07-30T23:02:47.303Z,99045.50
2022-07-30T23:05:35.158Z,99050.06
2022-07-30T23:08:29.295Z,99046.41
2022-07-30T23:11:16.549Z,99049.59
2022-07-30T23:12:27.492Z,99055.69
2022-07-30T23:14:01.989Z,99048.41
2022-07-30T23:16:50.249Z,99044.84
2022-07-30T23:19:35.924Z,99037.69
2022-07-30T23:22:21.167Z,99036.16
2022-07-30T23:25:08.694Z,99032.66
2022-07-30T23:27:53.997Z,99032.25
2022-07-30T23:30:39.232Z,99029.00
2022-07-30T23:33:24.561Z,99036.22
2022-07-30T23:36:10.183Z,99021.19
2022-07-30T23:38:55.730Z,99025.63
2022-07-30T23:41:43.748Z,99018.81
2022-07-30T23:44:28.886Z,99017.16
2022-07-30T23:47:14.165Z,99021.53
2022-07-30T23:49:59.418Z,99016.81
2022-07-30T23:52:45.619Z,99007.25
2022-07-30T23:55:32.073Z,99015.19
2022-07-30T23:58:18.276Z,99006.47
